createdAt,value
2023-01-28T00:00:34.908Z,102618.94
2023-01-28T00:03:01.229Z,102619.94
2023-01-28T00:05:27.560Z,102625.03
2023-01-28T00:07:53.878Z,102622.63
2023-01-28T00:10:20.688Z,102621.84
2023-01-28T00:12:48.300Z,102624.25
2023-01-28T00:15:14.937Z,102628.59
2023-01-28T00:17:41.451Z,102621.50
2023-01-28T00:20:08.369Z,102617.22
2023-01-28T00:22:34.679Z,102617.16
2023-01-28T00:25:00.960Z,102612.13
2023-01-28T00:27:27.254Z,102609.28
2023-01-28T00:29:54.920Z,102606.88
2023-01-28T00:32:21.227Z,102606.94
2023-01-28T00:34:47.505Z,102609.69
2023-01-28T00:37:13.836Z,102606.03
2023-01-28T00:39:40.153Z,102610.34
2023-01-28T00:42:06.460Z,102615.78
2023-01-28T00:44:32.776Z,102617.09
2023-01-28T00:47:00.446Z,102612.81
2023-01-28T00:49:26.743Z,102612.53
2023-01-28T00:51:53.124Z,102619.53
2023-01-28T00:54:19.445Z,102610.19
2023-01-28T00:56:45.738Z,102611.06
2023-01-28T00:59:12.034Z,102617.22
2023-01-28T01:01:38.414Z,102615.41
2023-01-28T01:04:06.108Z,102630.19
2023-01-28T01:06:33.185Z,102629.66
2023-01-28T01:08:59.582Z,102625.72
2023-01-28T01:11:25.953Z,102639.78
2023-01-28T01:13:52.913Z,102638.13
2023-01-28T01:16:19.324Z,102640.81
2023-01-28T01:18:45.637Z,102646.22
2023-01-28T01:21:14.761Z,102644.69
2023-01-28T01:23:41.061Z,102642.19
2023-01-28T01:26:07.401Z,102641.94
2023-01-28T01:28:33.972Z,102639.59
2023-01-28T01:31:01.110Z,102635.16
2023-01-28T01:33:28.367Z,102627.72
2023-01-28T01:35:55.004Z,102621.84
2023-01-28T01:38:22.691Z,102626.47
2023-01-28T01:40:49.006Z,102629.84
2023-01-28T01:43:16.534Z,102621.09
2023-01-28T01:45:44.078Z,102624.34
2023-01-28T01:48:13.443Z,102619.94
2023-01-28T01:50:41.007Z,102634.16
2023-01-28T01:53:09.625Z,102630.28
2023-01-28T01:55:39.461Z,102630.56
2023-01-28T01:58:08.544Z,102635.31
2023-01-28T02:00:34.865Z,102633.44
2023-01-28T02:03:01.364Z,102629.44
2023-01-28T02:05:27.682Z,102639.09
2023-01-28T02:07:55.636Z,102638.00
2023-01-28T02:10:22.585Z,102642.28
2023-01-28T02:12:53.463Z,102637.41
2023-01-28T02:15:20.831Z,102638.78
2023-01-28T02:17:47.460Z,102638.91
2023-01-28T02:20:14.741Z,102640.69
2023-01-28T02:22:55.965Z,102650.91
2023-01-28T02:25:40.089Z,102647.63
2023-01-28T02:28:13.663Z,102641.72
2023-01-28T02:30:42.075Z,102643.19
2023-01-28T02:33:11.073Z,102643.25
2023-01-28T02:35:38.888Z,102641.00
2023-01-28T02:38:08.338Z,102644.66
2023-01-28T02:40:36.706Z,102650.25
2023-01-28T02:43:03.161Z,102638.56
2023-01-28T02:45:33.560Z,102643.63
2023-01-28T02:47:59.881Z,102640.06
2023-01-28T02:50:31.504Z,102636.16
2023-01-28T02:53:03.133Z,102641.56
2023-01-28T02:55:35.131Z,102643.28
2023-01-28T02:58:06.509Z,102635.13
2023-01-28T03:00:39.976Z,102643.06
2023-01-28T03:03:10.263Z,102641.47
2023-01-28T03:05:38.501Z,102646.28
2023-01-28T03:08:06.543Z,102642.56
2023-01-28T03:10:32.847Z,102651.91
2023-01-28T03:12:59.429Z,102651.34
2023-01-28T03:15:26.770Z,102654.94
2023-01-28T03:17:58.438Z,102652.50
2023-01-28T03:20:25.896Z,102653.91
2023-01-28T03:22:53.638Z,102656.53
2023-01-28T03:25:20.823Z,102657.28
2023-01-28T03:27:48.828Z,102664.28
2023-01-28T03:30:16.874Z,102668.44
2023-01-28T03:32:43.706Z,102668.63
2023-01-28T03:35:14.435Z,102667.09
2023-01-28T03:37:40.989Z,102671.25
2023-01-28T03:40:08.072Z,102671.31
2023-01-28T03:42:34.414Z,102673.88
2023-01-28T03:45:00.741Z,102672.03
2023-01-28T03:47:28.284Z,102675.81
2023-01-28T03:49:55.479Z,102678.00
2023-01-28T03:52:23.867Z,102673.38
2023-01-28T03:54:50.284Z,102672.00
2023-01-28T03:57:17.629Z,102672.88
2023-01-28T03:59:44.202Z,102667.50
2023-01-28T04:02:11.321Z,102672.81
2023-01-28T04:04:38.055Z,102665.31
2023-01-28T04:07:04.599Z,102668.78
2023-01-28T04:09:32.285Z,102661.41
2023-01-28T04:11:58.595Z,102671.03
2023-01-28T04:14:24.929Z,102678.97
2023-01-28T04:16:51.262Z,102682.41
2023-01-28T04:19:17.578Z,102684.06
2023-01-28T04:21:43.908Z,102682.28
2023-01-28T04:24:10.303Z,102687.16
2023-01-28T04:26:38.053Z,102682.94
2023-01-28T04:29:04.699Z,102691.19
2023-01-28T04:31:31.042Z,102691.28
2023-01-28T04:33:57.697Z,102686.00
2023-01-28T04:36:24.432Z,102687.66
2023-01-28T04:38:50.966Z,102687.53
2023-01-28T04:41:17.425Z,102684.00
2023-01-28T04:43:46.672Z,102684.97
2023-01-28T04:46:13.101Z,102673.63
2023-01-28T04:48:39.418Z,102673.50
2023-01-28T04:51:05.945Z,102676.84
2023-01-28T04:53:32.278Z,102676.56
2023-01-28T04:55:58.860Z,102679.94
2023-01-28T04:58:25.494Z,102686.78
2023-01-28T05:00:55.019Z,102675.94
2023-01-28T05:03:21.361Z,102678.13
2023-01-28T05:05:47.661Z,102682.72
2023-01-28T05:08:13.999Z,102683.63
2023-01-28T05:10:40.316Z,102676.50
2023-01-28T05:13:06.663Z,102682.16
2023-01-28T05:15:32.960Z,102685.03
2023-01-28T05:18:00.873Z,102684.09
2023-01-28T05:20:27.412Z,102682.41
2023-01-28T05:22:53.741Z,102678.97
2023-01-28T05:25:20.054Z,102676.84
2023-01-28T05:27:49.439Z,102678.31
2023-01-28T05:30:16.524Z,102687.66
2023-01-28T05:32:43.034Z,102687.66
2023-01-28T05:35:11.652Z,102683.31
2023-01-28T05:37:38.045Z,102698.13
2023-01-28T05:40:04.841Z,102694.59
2023-01-28T05:42:31.166Z,102684.91
2023-01-28T05:44:57.494Z,102681.53
2023-01-28T05:47:23.800Z,102683.81
2023-01-28T05:49:50.138Z,102684.44
2023-01-28T05:52:17.868Z,102684.66
2023-01-28T05:54:44.201Z,102690.97
2023-01-28T05:57:10.535Z,102689.09
2023-01-28T05:59:36.904Z,102695.50
2023-01-28T06:02:03.220Z,102693.16
2023-01-28T06:04:29.519Z,102696.22
2023-01-28T06:06:55.842Z,102698.22
2023-01-28T06:09:23.533Z,102699.25
2023-01-28T06:11:49.859Z,102700.03
2023-01-28T06:14:16.213Z,102698.97
2023-01-28T06:16:42.541Z,102708.50
2023-01-28T06:19:08.843Z,102701.53
2023-01-28T06:21:35.181Z,102707.84
2023-01-28T06:24:01.514Z,102711.16
2023-01-28T06:26:29.149Z,102714.94
2023-01-28T06:28:55.495Z,102709.16
2023-01-28T06:31:21.799Z,102712.78
2023-01-28T06:33:48.117Z,102714.59
2023-01-28T06:36:14.453Z,102721.50
2023-01-28T06:38:40.754Z,102728.22
2023-01-28T06:41:07.062Z,102722.56
2023-01-28T06:43:34.785Z,102733.97
2023-01-28T06:46:01.162Z,102732.84
2023-01-28T06:48:27.884Z,102733.56
2023-01-28T06:50:54.724Z,102732.84
2023-01-28T06:53:21.523Z,102736.56
2023-01-28T06:55:47.902Z,102736.81
2023-01-28T06:58:14.371Z,102737.75
2023-01-28T07:00:42.064Z,102738.66
2023-01-28T07:03:08.475Z,102734.28
2023-01-28T07:05:34.816Z,102732.53
2023-01-28T07:08:01.148Z,102733.38
2023-01-28T07:10:27.475Z,102731.75
2023-01-28T07:12:53.863Z,102740.47
2023-01-28T07:15:20.148Z,102738.00
2023-01-28T07:17:47.777Z,102738.00
2023-01-28T07:20:15.036Z,102746.06
2023-01-28T07:22:42.356Z,102731.75
2023-01-28T07:25:09.447Z,102724.09
2023-01-28T07:27:35.743Z,102729.31
2023-01-28T07:30:02.050Z,102737.25
2023-01-28T07:32:28.441Z,102739.00
2023-01-28T07:34:56.307Z,102738.25
2023-01-28T07:37:22.663Z,102738.28
2023-01-28T07:39:48.977Z,102736.44
2023-01-28T07:42:15.311Z,102740.81
2023-01-28T07:44:41.603Z,102742.53
2023-01-28T07:47:07.950Z,102759.13
2023-01-28T07:49:34.312Z,102758.09
2023-01-28T07:52:02.097Z,102761.41
2023-01-28T07:54:28.426Z,102759.50
2023-01-28T07:56:54.730Z,102764.84
2023-01-28T07:59:22.110Z,102774.47
2023-01-28T08:01:48.444Z,102761.31
2023-01-28T08:04:14.914Z,102767.44
2023-01-28T08:06:41.260Z,102772.75
2023-01-28T08:09:09.131Z,102777.13
2023-01-28T08:11:37.933Z,102768.47
2023-01-28T08:14:04.350Z,102770.41
2023-01-28T08:16:30.656Z,102777.19
2023-01-28T08:18:56.956Z,102784.09
2023-01-28T08:21:23.515Z,102790.88
2023-01-28T08:23:49.896Z,102788.53
2023-01-28T08:26:17.565Z,102790.94
2023-01-28T08:28:43.956Z,102793.88
2023-01-28T08:31:10.375Z,102793.00
2023-01-28T08:33:36.733Z,102797.25
2023-01-28T08:36:03.549Z,102807.81
2023-01-28T08:38:29.979Z,102809.94
2023-01-28T08:40:56.543Z,102827.41
2023-01-28T08:43:24.185Z,102818.53
2023-01-28T08:45:50.484Z,102825.22
2023-01-28T08:48:18.007Z,102840.47
2023-01-28T08:50:44.734Z,102840.53
2023-01-28T08:53:12.832Z,102830.66
2023-01-28T08:55:39.289Z,102837.09
2023-01-28T08:58:06.810Z,102840.56
2023-01-28T09:00:35.093Z,102846.69
2023-01-28T09:03:03.911Z,102843.06
2023-01-28T09:05:31.938Z,102845.78
2023-01-28T09:08:00.556Z,102848.13
2023-01-28T09:10:26.861Z,102845.72
2023-01-28T09:12:53.162Z,102846.47
2023-01-28T09:15:19.577Z,102845.25
2023-01-28T09:17:47.221Z,102844.38
2023-01-28T09:20:14.334Z,102846.97
2023-01-28T09:22:40.766Z,102847.81
2023-01-28T09:25:07.424Z,102850.53
2023-01-28T09:27:33.871Z,102849.34
2023-01-28T09:30:00.220Z,102852.94
2023-01-28T09:32:26.554Z,102870.75
2023-01-28T09:34:54.226Z,102865.50
2023-01-28T09:37:20.571Z,102868.53
2023-01-28T09:39:46.862Z,102866.91
2023-01-28T09:42:21.927Z,102865.94
2023-01-28T09:44:57.127Z,102864.91
2023-01-28T09:47:26.126Z,102863.66
2023-01-28T09:49:55.890Z,102865.22
2023-01-28T09:52:23.457Z,102870.03
2023-01-28T09:54:51.786Z,102858.47
2023-01-28T09:57:20.684Z,102864.31
2023-01-28T09:59:47.021Z,102868.63
2023-01-28T10:02:23.310Z,102861.88
2023-01-28T10:04:55.434Z,102872.00
2023-01-28T10:07:28.654Z,102867.72
2023-01-28T10:09:59.125Z,102879.72
2023-01-28T10:12:56.379Z,102878.09
2023-01-28T10:15:35.804Z,102870.66
2023-01-28T10:18:16.534Z,102875.91
2023-01-28T10:20:46.938Z,102873.16
2023-01-28T10:23:18.871Z,102883.94
2023-01-28T10:25:46.818Z,102870.25
2023-01-28T10:28:17.894Z,102876.38
2023-01-28T10:30:45.072Z,102887.56
2023-01-28T10:33:16.421Z,102878.84
2023-01-28T10:35:42.945Z,102886.78
2023-01-28T10:38:12.897Z,102881.88
2023-01-28T10:40:41.583Z,102889.50
2023-01-28T10:43:07.929Z,102882.31
2023-01-28T10:45:36.249Z,102886.41
2023-01-28T10:48:03.986Z,102878.91
2023-01-28T10:50:31.289Z,102872.69
2023-01-28T10:52:58.395Z,102885.69
2023-01-28T10:55:26.125Z,102882.13
2023-01-28T10:57:54.444Z,102883.56
2023-01-28T11:00:25.585Z,102877.50
2023-01-28T11:02:52.193Z,102885.97
2023-01-28T11:05:20.838Z,102879.16
2023-01-28T11:07:47.305Z,102877.91
2023-01-28T11:10:25.343Z,102878.09
2023-01-28T11:12:56.510Z,102868.63
2023-01-28T11:15:22.959Z,102876.78
2023-01-28T11:17:55.375Z,102880.53
2023-01-28T11:20:24.126Z,102877.63
2023-01-28T11:22:51.236Z,102872.31
2023-01-28T11:25:18.698Z,102876.31
2023-01-28T11:27:47.262Z,102872.97
2023-01-28T11:30:21.425Z,102882.38
2023-01-28T11:32:54.407Z,102877.56
2023-01-28T11:35:24.888Z,102872.38
2023-01-28T11:37:51.209Z,102869.31
2023-01-28T11:40:20.570Z,102871.53
2023-01-28T11:42:47.986Z,102869.84
2023-01-28T11:45:16.193Z,102860.81
2023-01-28T11:47:50.664Z,102846.91
2023-01-28T11:50:22.560Z,102838.00
2023-01-28T11:53:06.801Z,102846.25
2023-01-28T11:55:54.001Z,102844.22
2023-01-28T11:58:21.845Z,102839.09
2023-01-28T12:00:51.993Z,102834.31
2023-01-28T12:03:28.537Z,102824.41
2023-01-28T12:05:57.174Z,102818.34
2023-01-28T12:08:24.238Z,102834.47
2023-01-28T12:11:04.950Z,102834.13
2023-01-28T12:13:37.459Z,102820.84
2023-01-28T12:16:11.904Z,102797.38
2023-01-28T12:18:47.114Z,102793.84
2023-01-28T12:21:16.719Z,102794.66
2023-01-28T12:23:52.616Z,102784.72
2023-01-28T12:26:25.402Z,102767.72
2023-01-28T12:28:54.721Z,102755.38
2023-01-28T12:31:31.649Z,102754.38
2023-01-28T12:34:08.224Z,102739.22
2023-01-28T12:36:42.251Z,102726.47
2023-01-28T12:39:12.987Z,102737.78
2023-01-28T12:41:41.804Z,102762.06
2023-01-28T12:44:11.063Z,102760.06
2023-01-28T12:46:41.345Z,102750.06
2023-01-28T12:49:14.599Z,102763.34
2023-01-28T12:51:46.821Z,102784.19
2023-01-28T12:54:16.842Z,102780.56
2023-01-28T12:56:44.233Z,102775.75
2023-01-28T12:59:12.488Z,102785.53
2023-01-28T13:01:41.949Z,102770.75
2023-01-28T13:04:13.584Z,102774.13
2023-01-28T13:06:42.072Z,102790.34
2023-01-28T13:09:12.721Z,102787.66
2023-01-28T13:11:39.471Z,102795.34
2023-01-28T13:14:05.944Z,102796.25
2023-01-28T13:16:37.864Z,102794.22
2023-01-28T13:19:06.347Z,102805.97
2023-01-28T13:21:47.618Z,102805.22
2023-01-28T13:24:23.661Z,102800.78
2023-01-28T13:26:50.692Z,102787.81
2023-01-28T13:29:22.203Z,102785.44
2023-01-28T13:31:51.839Z,102776.78
2023-01-28T13:34:29.217Z,102791.56
2023-01-28T13:36:58.091Z,102786.91
2023-01-28T13:39:26.037Z,102794.72
2023-01-28T13:41:53.235Z,102789.78
2023-01-28T13:44:21.507Z,102795.53
2023-01-28T13:46:47.871Z,102795.81
2023-01-28T13:49:15.914Z,102789.47
2023-01-28T13:51:50.677Z,102795.59
2023-01-28T13:54:20.910Z,102798.72
2023-01-28T13:56:55.861Z,102777.81
2023-01-28T13:59:32.973Z,102775.56
2023-01-28T14:02:19.607Z,102768.84
2023-01-28T14:04:57.797Z,102762.53
2023-01-28T14:07:43.950Z,102763.19
2023-01-28T14:10:20.796Z,102754.19
2023-01-28T14:13:09.772Z,102748.94
2023-01-28T14:15:54.852Z,102740.09
2023-01-28T14:18:24.978Z,102736.28
2023-01-28T14:20:52.281Z,102733.81
2023-01-28T14:23:19.434Z,102731.47
2023-01-28T14:25:55.016Z,102720.06
2023-01-28T14:28:31.089Z,102724.47
2023-01-28T14:31:01.555Z,102722.94
2023-01-28T14:33:27.936Z,102733.66
2023-01-28T14:35:55.413Z,102728.78
2023-01-28T14:38:22.222Z,102733.50
2023-01-28T14:40:51.581Z,102741.34
2023-01-28T14:43:20.316Z,102748.44
2023-01-28T14:45:56.852Z,102760.75
2023-01-28T14:48:24.603Z,102754.03
2023-01-28T14:51:14.121Z,102757.63
2023-01-28T14:53:48.739Z,102752.44
2023-01-28T14:56:21.923Z,102749.13
2023-01-28T14:58:50.334Z,102750.97
2023-01-28T15:01:20.285Z,102757.22
2023-01-28T15:03:46.624Z,102772.09
2023-01-28T15:06:13.919Z,102780.22
2023-01-28T15:08:40.528Z,102772.44
2023-01-28T15:11:08.497Z,102773.19
2023-01-28T15:13:38.830Z,102769.38
2023-01-28T15:16:05.721Z,102779.81
2023-01-28T15:18:33.966Z,102778.97
2023-01-28T15:21:00.747Z,102786.81
2023-01-28T15:23:28.593Z,102777.19
2023-01-28T15:25:55.117Z,102773.72
2023-01-28T15:28:25.273Z,102776.34
2023-01-28T15:30:53.010Z,102779.91
2023-01-28T15:33:20.598Z,102782.50
2023-01-28T15:35:46.997Z,102785.63
2023-01-28T15:38:13.319Z,102784.03
2023-01-28T15:40:41.888Z,102786.81
2023-01-28T15:43:12.881Z,102783.50
2023-01-28T15:45:44.484Z,102779.34
2023-01-28T15:48:12.289Z,102776.16
2023-01-28T15:50:40.119Z,102789.66
2023-01-28T15:53:08.265Z,102793.38
2023-01-28T15:55:36.371Z,102796.19
2023-01-28T15:58:19.570Z,102811.31
2023-01-28T16:00:46.313Z,102825.59
2023-01-28T16:03:19.258Z,102820.56
2023-01-28T16:05:54.780Z,102833.91
2023-01-28T16:08:25.675Z,102828.88
2023-01-28T16:10:52.349Z,102834.25
2023-01-28T16:13:21.574Z,102844.78
2023-01-28T16:15:50.016Z,102841.38
2023-01-28T16:18:23.893Z,102844.19
2023-01-28T16:20:50.233Z,102844.44
2023-01-28T16:23:20.553Z,102855.09
2023-01-28T16:25:46.882Z,102833.56
2023-01-28T16:28:17.059Z,102840.72
2023-01-28T16:30:43.449Z,102833.94
2023-01-28T16:33:17.387Z,102829.00
2023-01-28T16:36:04.441Z,102823.06
2023-01-28T16:38:31.409Z,102814.47
2023-01-28T16:40:58.722Z,102802.47
2023-01-28T16:43:25.038Z,102798.22
2023-01-28T16:45:51.317Z,102796.66
2023-01-28T16:48:17.636Z,102802.91
2023-01-28T16:50:45.446Z,102818.03
2023-01-28T16:53:17.923Z,102818.13
2023-01-28T16:55:44.277Z,102817.59
2023-01-28T16:58:10.709Z,102827.59
2023-01-28T17:00:37.107Z,102835.84
2023-01-28T17:03:03.396Z,102836.06
2023-01-28T17:05:29.980Z,102828.28
2023-01-28T17:07:57.604Z,102828.31
2023-01-28T17:10:23.932Z,102826.66
2023-01-28T17:12:50.267Z,102815.28
2023-01-28T17:15:17.201Z,102818.69
2023-01-28T17:17:43.802Z,102831.00
2023-01-28T17:20:10.902Z,102837.22
2023-01-28T17:22:39.270Z,102822.66
2023-01-28T17:25:08.130Z,102819.22
2023-01-28T17:27:34.439Z,102822.84
2023-01-28T17:30:00.756Z,102816.75
2023-01-28T17:32:27.135Z,102815.88
2023-01-28T17:34:53.445Z,102813.25
2023-01-28T17:37:19.810Z,102816.03
2023-01-28T17:39:46.133Z,102820.44
2023-01-28T17:42:13.795Z,102803.88
2023-01-28T17:44:40.099Z,102813.50
2023-01-28T17:47:06.434Z,102813.69
2023-01-28T17:49:32.871Z,102817.25
2023-01-28T17:51:59.206Z,102838.13
2023-01-28T17:54:25.737Z,102833.84
2023-01-28T17:56:52.083Z,102838.34
2023-01-28T17:59:19.889Z,102845.59
2023-01-28T18:01:46.229Z,102855.38
2023-01-28T18:04:12.560Z,102860.78
2023-01-28T18:06:38.919Z,102858.38
2023-01-28T18:09:05.560Z,102868.94
2023-01-28T18:11:31.875Z,102866.44
2023-01-28T18:13:58.331Z,102867.47
2023-01-28T18:16:26.058Z,102866.59
2023-01-28T18:18:52.438Z,102861.34
2023-01-28T18:21:20.262Z,102864.75
2023-01-28T18:23:46.619Z,102859.50
2023-01-28T18:26:12.990Z,102865.53
2023-01-28T18:28:39.284Z,102868.19
2023-01-28T18:31:06.291Z,102870.06
2023-01-28T18:33:34.120Z,102874.53
2023-01-28T18:36:00.466Z,102879.91
2023-01-28T18:38:26.805Z,102892.97
2023-01-28T18:40:54.416Z,102897.34
2023-01-28T18:43:20.871Z,102896.47
2023-01-28T18:45:47.229Z,102896.69
2023-01-28T18:48:13.521Z,102904.66
2023-01-28T18:50:41.204Z,102902.84
2023-01-28T18:53:07.606Z,102894.13
2023-01-28T18:55:33.937Z,102887.19
2023-01-28T18:58:00.236Z,102883.69
2023-01-28T19:00:26.659Z,102880.09
2023-01-28T19:02:53.033Z,102881.78
2023-01-28T19:05:19.419Z,102880.00
2023-01-28T19:07:47.264Z,102882.59
2023-01-28T19:10:13.569Z,102890.41
2023-01-28T19:12:39.922Z,102897.38
2023-01-28T19:15:06.921Z,102891.38
2023-01-28T19:17:35.425Z,102878.25
2023-01-28T19:20:01.870Z,102875.59
2023-01-28T19:22:28.177Z,102871.22
2023-01-28T19:24:55.787Z,102873.84
2023-01-28T19:27:22.085Z,102873.03
2023-01-28T19:29:48.788Z,102875.66
2023-01-28T19:32:15.113Z,102881.78
2023-01-28T19:34:41.434Z,102874.81
2023-01-28T19:37:07.775Z,102879.09
2023-01-28T19:39:34.097Z,102887.03
2023-01-28T19:42:01.753Z,102888.91
2023-01-28T19:44:28.072Z,102888.16
2023-01-28T19:46:54.433Z,102891.91
2023-01-28T19:49:20.753Z,102895.44
2023-01-28T19:51:47.100Z,102898.09
2023-01-28T19:54:13.445Z,102890.34
2023-01-28T19:56:39.727Z,102897.28
2023-01-28T19:59:07.391Z,102897.19
2023-01-28T20:01:33.821Z,102891.06
2023-01-28T20:04:00.464Z,102893.63
2023-01-28T20:06:27.747Z,102897.09
2023-01-28T20:08:54.885Z,102891.03
2023-01-28T20:11:21.577Z,102891.97
2023-01-28T20:13:48.997Z,102891.25
2023-01-28T20:16:19.903Z,102894.84
2023-01-28T20:18:48.509Z,102894.06
2023-01-28T20:21:14.845Z,102882.88
2023-01-28T20:23:41.137Z,102885.44
2023-01-28T20:26:07.463Z,102888.84
2023-01-28T20:28:33.821Z,102888.84
2023-01-28T20:31:03.890Z,102886.22
2023-01-28T20:33:31.665Z,102891.47
2023-01-28T20:36:00.195Z,102886.25
2023-01-28T20:38:26.522Z,102885.34
2023-01-28T20:40:52.816Z,102881.88
2023-01-28T20:43:19.111Z,102881.84
2023-01-28T20:45:45.615Z,102876.59
2023-01-28T20:48:12.201Z,102871.31
2023-01-28T20:50:39.990Z,102873.03
2023-01-28T20:53:06.316Z,102873.94
2023-01-28T20:55:33.521Z,102874.00
2023-01-28T20:57:59.898Z,102877.47
2023-01-28T21:00:26.607Z,102871.31
2023-01-28T21:02:55.306Z,102871.28
2023-01-28T21:05:21.826Z,102870.47
2023-01-28T21:07:49.521Z,102861.06
2023-01-28T21:10:16.518Z,102858.41
2023-01-28T21:12:43.021Z,102850.59
2023-01-28T21:15:09.832Z,102847.16
2023-01-28T21:17:36.157Z,102854.97
2023-01-28T21:20:04.366Z,102844.59
2023-01-28T21:22:30.733Z,102849.03
2023-01-28T21:24:58.442Z,102857.75
2023-01-28T21:27:24.831Z,102856.03
2023-01-28T21:29:51.605Z,102850.03
2023-01-28T21:32:18.984Z,102855.28
2023-01-28T21:34:45.336Z,102857.06
2023-01-28T21:37:11.709Z,102852.78
2023-01-28T21:39:38.365Z,102851.06
2023-01-28T21:42:08.388Z,102852.09
2023-01-28T21:44:34.732Z,102852.16
2023-01-28T21:47:01.053Z,102846.84
2023-01-28T21:49:27.521Z,102859.84
2023-01-28T21:51:53.970Z,102854.66
2023-01-28T21:54:20.330Z,102852.91
2023-01-28T21:56:47.623Z,102854.66
2023-01-28T21:59:16.140Z,102852.09
2023-01-28T22:01:42.925Z,102860.81
2023-01-28T22:04:09.298Z,102854.91
2023-01-28T22:06:35.578Z,102853.31
2023-01-28T22:09:01.933Z,102862.00
2023-01-28T22:11:28.237Z,102862.91
2023-01-28T22:13:54.557Z,102873.47
2023-01-28T22:16:22.320Z,102880.56
2023-01-28T22:18:48.668Z,102879.72
2023-01-28T22:21:14.977Z,102875.44
2023-01-28T22:23:41.575Z,102871.91
2023-01-28T22:26:08.244Z,102883.16
2023-01-28T22:28:36.344Z,102871.91
2023-01-28T22:31:06.822Z,102873.66
2023-01-28T22:33:35.235Z,102867.59
2023-01-28T22:36:01.846Z,102871.03
2023-01-28T22:38:28.170Z,102873.53
2023-01-28T22:40:54.472Z,102861.31
2023-01-28T22:43:20.779Z,102862.09
2023-01-28T22:45:47.085Z,102852.53
2023-01-28T22:48:13.411Z,102854.28
2023-01-28T22:50:41.082Z,102850.00
2023-01-28T22:53:07.389Z,102858.75
2023-01-28T22:55:33.713Z,102851.97
2023-01-28T22:57:59.996Z,102851.16
2023-01-28T23:00:27.026Z,102839.88
2023-01-28T23:02:53.341Z,102837.19
2023-01-28T23:05:19.688Z,102840.59
2023-01-28T23:07:47.307Z,102846.66
2023-01-28T23:10:14.005Z,102852.78
2023-01-28T23:12:40.625Z,102847.59
2023-01-28T23:15:07.410Z,102849.34
2023-01-28T23:17:33.723Z,102837.19
2023-01-28T23:20:00.044Z,102840.63
2023-01-28T23:22:28.032Z,102839.75
2023-01-28T23:24:55.702Z,102833.63
2023-01-28T23:27:21.973Z,102823.19
2023-01-28T23:29:48.235Z,102830.13
2023-01-28T23:32:14.539Z,102816.28
2023-01-28T23:34:41.945Z,102818.00
2023-01-28T23:37:09.448Z,102818.00
2023-01-28T23:39:36.021Z,102819.72
2023-01-28T23:42:10.116Z,102820.59
2023-01-28T23:44:36.391Z,102816.28
2023-01-28T23:47:02.714Z,102809.34
2023-01-28T23:49:29.032Z,102815.47
2023-01-28T23:51:55.366Z,102818.97
2023-01-28T23:54:21.678Z,102811.19
2023-01-28T23:56:47.980Z,102811.22
2023-01-28T23:59:15.636Z,102812.13
